createdAt,value
2023-03-03T00:03:10.615Z,102370.53
2023-03-03T00:08:14.800Z,102387.91
2023-03-03T00:13:23.069Z,102379.63
2023-03-03T00:18:33.161Z,102376.19
2023-03-03T00:23:39.739Z,102397.66
2023-03-03T00:28:48.856Z,102394.47
2023-03-03T00:33:55.704Z,102394.88
2023-03-03T00:39:19.865Z,102402.28
2023-03-03T00:44:44.430Z,102395.31
2023-03-03T00:49:48.450Z,102394.50
2023-03-03T00:54:52.504Z,102401.34
2023-03-03T00:59:58.035Z,102392.16
2023-03-03T01:05:02.225Z,102408.28
2023-03-03T01:10:07.452Z,102409.91
2023-03-03T01:15:15.466Z,102400.31
2023-03-03T01:20:20.169Z,102408.22
2023-03-03T01:25:24.170Z,102411.50
2023-03-03T01:30:29.820Z,102415.25
2023-03-03T01:35:36.468Z,102406.97
2023-03-03T01:40:41.602Z,102406.31
2023-03-03T01:46:56.480Z,102424.41
2023-03-03T01:52:04.061Z,102420.09
2023-03-03T01:57:14.024Z,102416.00
2023-03-03T02:02:20.822Z,102420.31
2023-03-03T02:07:28.338Z,102403.03
2023-03-03T02:12:37.793Z,102409.91
2023-03-03T02:17:43.236Z,102411.91
2023-03-03T02:22:53.706Z,102421.13
2023-03-03T02:27:59.211Z,102414.41
2023-03-03T02:33:03.342Z,102416.00
2023-03-03T02:38:20.928Z,102419.59
2023-03-03T02:43:32.624Z,102416.19
2023-03-03T02:48:36.787Z,102413.59
2023-03-03T02:53:40.837Z,102415.56
2023-03-03T02:58:46.428Z,102418.91
2023-03-03T03:03:50.861Z,102424.75
2023-03-03T03:08:57.452Z,102420.88
2023-03-03T03:14:03.192Z,102417.88
2023-03-03T03:19:08.416Z,102426.28
2023-03-03T03:24:14.071Z,102417.63
2023-03-03T03:29:24.538Z,102422.66
2023-03-03T03:34:28.692Z,102438.97
2023-03-03T03:39:34.147Z,102438.38
2023-03-03T03:44:39.869Z,102436.94
2023-03-03T03:49:43.982Z,102442.72
2023-03-03T03:54:49.498Z,102451.31
2023-03-03T03:59:55.875Z,102441.97
2023-03-03T04:05:00.346Z,102431.53
2023-03-03T04:10:04.762Z,102448.75
2023-03-03T04:15:26.626Z,102438.25
2023-03-03T04:20:32.363Z,102432.56
2023-03-03T04:25:36.500Z,102442.84
2023-03-03T04:30:50.353Z,102458.47
2023-03-03T04:35:56.351Z,102452.41
2023-03-03T04:41:00.820Z,102460.13
2023-03-03T04:46:10.781Z,102460.72
2023-03-03T04:51:16.712Z,102461.50
2023-03-03T04:56:22.606Z,102467.50
2023-03-03T05:01:28.705Z,102466.84
2023-03-03T05:06:33.481Z,102460.66
2023-03-03T05:11:37.600Z,102469.47
2023-03-03T05:16:43.101Z,102472.09
2023-03-03T05:21:47.258Z,102468.81
2023-03-03T05:26:51.293Z,102477.72
2023-03-03T05:31:56.690Z,102480.22
2023-03-03T05:37:00.819Z,102475.97
2023-03-03T05:42:05.785Z,102478.31
2023-03-03T05:47:11.276Z,102482.66
2023-03-03T05:52:15.348Z,102492.06
2023-03-03T05:57:19.409Z,102483.63
2023-03-03T06:02:24.878Z,102491.25
2023-03-03T06:07:29.102Z,102489.66
2023-03-03T06:12:33.106Z,102494.78
2023-03-03T06:17:38.461Z,102500.75
2023-03-03T06:22:42.506Z,102505.78
2023-03-03T06:27:46.509Z,102510.31
2023-03-03T06:32:51.947Z,102512.97
2023-03-03T06:37:55.983Z,102518.31
2023-03-03T06:43:00.042Z,102524.50
2023-03-03T06:48:06.284Z,102536.25
2023-03-03T06:53:14.725Z,102546.91
2023-03-03T06:58:21.350Z,102547.38
2023-03-03T07:03:30.124Z,102563.50
2023-03-03T07:08:34.479Z,102557.66
2023-03-03T07:13:44.032Z,102556.81
2023-03-03T07:18:54.171Z,102566.47
2023-03-03T07:24:00.168Z,102569.78
2023-03-03T07:29:18.132Z,102570.69
2023-03-03T07:34:28.805Z,102574.22
2023-03-03T07:39:39.139Z,102593.50
2023-03-03T07:44:45.781Z,102580.56
2023-03-03T07:49:53.208Z,102589.41
2023-03-03T07:54:59.173Z,102592.13
2023-03-03T08:00:54.970Z,102603.34
2023-03-03T08:06:01.498Z,102606.53
2023-03-03T08:11:06.942Z,102611.75
2023-03-03T08:16:32.411Z,102613.25
2023-03-03T08:21:37.998Z,102624.47
2023-03-03T08:26:42.162Z,102623.25
2023-03-03T08:31:46.171Z,102627.53
2023-03-03T08:36:51.593Z,102622.09
2023-03-03T08:41:55.621Z,102626.78
2023-03-03T08:46:59.578Z,102622.16
2023-03-03T08:52:05.170Z,102622.13
2023-03-03T08:57:09.252Z,102624.44
2023-03-03T09:02:13.332Z,102637.41
2023-03-03T09:07:19.268Z,102645.72
2023-03-03T09:12:31.081Z,102651.50
2023-03-03T09:17:36.976Z,102647.03
2023-03-03T09:22:42.376Z,102654.50
2023-03-03T09:27:46.441Z,102651.69
2023-03-03T09:32:50.431Z,102655.81
2023-03-03T09:37:56.027Z,102649.44
2023-03-03T09:43:06.286Z,102653.34
2023-03-03T09:48:34.000Z,102662.78
2023-03-03T09:54:05.578Z,102665.00
2023-03-03T09:59:27.787Z,102656.28
2023-03-03T10:05:01.952Z,102670.78
2023-03-03T10:10:31.619Z,102669.72
2023-03-03T10:15:45.401Z,102669.41
2023-03-03T10:21:06.222Z,102665.66
2023-03-03T10:26:38.255Z,102667.81
2023-03-03T10:32:28.831Z,102671.28
2023-03-03T10:37:47.522Z,102661.28
2023-03-03T10:43:31.207Z,102659.63
2023-03-03T10:49:07.257Z,102650.41
2023-03-03T10:54:30.802Z,102657.28
2023-03-03T10:59:55.054Z,102662.81
2023-03-03T11:05:19.935Z,102629.28
2023-03-03T11:10:39.658Z,102605.25
2023-03-03T11:16:02.102Z,102589.47
2023-03-03T11:21:17.386Z,102576.13
2023-03-03T11:26:40.326Z,102561.38
2023-03-03T11:31:50.855Z,102561.81
2023-03-03T11:37:05.548Z,102547.69
2023-03-03T11:42:22.508Z,102533.22
2023-03-03T11:47:34.783Z,102542.41
2023-03-03T11:52:46.480Z,102536.28
2023-03-03T11:58:00.927Z,102525.69
2023-03-03T12:03:22.898Z,102517.38
2023-03-03T12:08:53.964Z,102524.22
2023-03-03T12:14:01.698Z,102517.66
2023-03-03T12:19:20.579Z,102511.47
2023-03-03T12:24:37.651Z,102509.38
2023-03-03T12:29:51.251Z,102506.75
2023-03-03T12:35:13.278Z,102496.47
2023-03-03T12:40:22.086Z,102471.13
2023-03-03T12:45:42.298Z,102476.34
2023-03-03T12:51:01.584Z,102464.09
2023-03-03T12:56:09.105Z,102460.97
2023-03-03T13:01:28.646Z,102466.31
2023-03-03T13:06:40.851Z,102490.47
2023-03-03T13:12:00.915Z,102493.56
2023-03-03T13:17:19.334Z,102482.63
2023-03-03T13:22:39.655Z,102483.88
2023-03-03T13:27:47.182Z,102487.19
2023-03-03T13:32:57.439Z,102495.31
2023-03-03T13:38:06.059Z,102495.09
2023-03-03T13:43:20.458Z,102502.94
2023-03-03T13:48:48.683Z,102498.28
2023-03-03T13:54:07.534Z,102495.16
2023-03-03T13:59:23.596Z,102496.13
2023-03-03T14:04:39.554Z,102500.47
2023-03-03T14:10:03.788Z,102497.19
2023-03-03T14:15:20.802Z,102490.56
2023-03-03T14:20:29.830Z,102495.97
2023-03-03T14:25:55.444Z,102498.09
2023-03-03T14:31:03.100Z,102490.69
2023-03-03T14:36:16.197Z,102497.69
2023-03-03T14:41:40.407Z,102493.88
2023-03-03T14:46:45.679Z,102481.81
2023-03-03T14:51:51.099Z,102479.88
2023-03-03T14:57:02.456Z,102478.31
2023-03-03T15:02:33.109Z,102478.53
2023-03-03T15:07:38.967Z,102467.34
2023-03-03T15:12:44.553Z,102469.06
2023-03-03T15:17:59.877Z,102464.16
2023-03-03T15:23:39.724Z,102454.75
2023-03-03T15:29:02.629Z,102450.03
2023-03-03T15:34:24.085Z,102461.59
2023-03-03T15:39:36.119Z,102458.00
2023-03-03T15:44:56.015Z,102453.09
2023-03-03T15:50:25.674Z,102459.50
2023-03-03T15:55:52.700Z,102451.63
2023-03-03T16:01:10.739Z,102452.47
2023-03-03T16:06:26.921Z,102447.91
2023-03-03T16:12:00.423Z,102461.63
2023-03-03T16:17:21.518Z,102460.16
2023-03-03T16:23:23.812Z,102450.94
2023-03-03T16:28:39.687Z,102448.28
2023-03-03T16:33:52.486Z,102454.72
2023-03-03T16:39:06.539Z,102460.41
2023-03-03T16:44:24.626Z,102460.31
2023-03-03T16:49:38.949Z,102469.88
2023-03-03T16:54:50.559Z,102474.34
2023-03-03T17:00:09.011Z,102477.09
2023-03-03T17:05:28.942Z,102485.19
2023-03-03T17:10:38.976Z,102486.75
2023-03-03T17:15:55.540Z,102498.25
2023-03-03T17:21:03.699Z,102499.66
2023-03-03T17:26:24.385Z,102513.31
2023-03-03T17:31:39.130Z,102516.47
2023-03-03T17:36:58.880Z,102524.09
2023-03-03T17:42:12.233Z,102528.28
2023-03-03T17:47:29.212Z,102538.84
2023-03-03T17:52:55.989Z,102550.09
2023-03-03T17:58:21.269Z,102552.69
2023-03-03T18:04:11.127Z,102551.91
2023-03-03T18:09:32.306Z,102558.25
2023-03-03T18:15:36.821Z,102566.28
2023-03-03T18:21:08.720Z,102567.41
2023-03-03T18:26:38.205Z,102565.13
2023-03-03T18:32:01.733Z,102576.63
2023-03-03T18:37:11.808Z,102577.56
2023-03-03T18:42:37.905Z,102580.34
2023-03-03T18:48:10.899Z,102579.44
2023-03-03T18:53:27.572Z,102583.41
2023-03-03T18:58:42.453Z,102585.94
2023-03-03T19:04:20.870Z,102576.91
2023-03-03T19:09:57.428Z,102580.34
2023-03-03T19:15:02.985Z,102575.72
2023-03-03T19:20:14.317Z,102584.38
2023-03-03T19:25:25.237Z,102591.25
2023-03-03T19:30:47.404Z,102579.28
2023-03-03T19:36:19.208Z,102578.59
2023-03-03T19:41:42.234Z,102579.50
2023-03-03T19:46:58.588Z,102574.03
2023-03-03T19:52:10.090Z,102585.81
2023-03-03T19:57:35.602Z,102592.72
2023-03-03T20:02:57.571Z,102596.56
2023-03-03T20:08:07.118Z,102591.44
2023-03-03T20:13:26.998Z,102599.50
2023-03-03T20:19:10.058Z,102613.00
2023-03-03T20:24:38.021Z,102607.81
2023-03-03T20:30:05.937Z,102610.38
2023-03-03T20:35:27.090Z,102622.53
2023-03-03T20:40:38.007Z,102626.56
2023-03-03T20:45:52.521Z,102629.91
2023-03-03T20:51:07.038Z,102634.06
2023-03-03T20:56:17.555Z,102644.00
2023-03-03T21:01:33.671Z,102642.97
2023-03-03T21:06:42.332Z,102640.78
2023-03-03T21:11:46.480Z,102648.22
2023-03-03T21:16:51.646Z,102645.94
2023-03-03T21:22:00.788Z,102643.41
2023-03-03T21:27:28.483Z,102647.81
2023-03-03T21:32:39.364Z,102640.25
2023-03-03T21:37:50.881Z,102639.13
2023-03-03T21:42:57.863Z,102644.00
2023-03-03T21:48:03.115Z,102636.03
2023-03-03T21:53:08.470Z,102644.22
2023-03-03T21:58:12.536Z,102626.50
2023-03-03T22:03:18.729Z,102630.13
2023-03-03T22:08:24.159Z,102629.31
2023-03-03T22:13:28.431Z,102628.19
2023-03-03T22:18:32.430Z,102628.78
2023-03-03T22:23:37.803Z,102618.44
2023-03-03T22:28:44.174Z,102611.47
2023-03-03T22:33:49.205Z,102624.78
2023-03-03T22:38:54.701Z,102614.03
2023-03-03T22:43:58.891Z,102629.31
2023-03-03T22:49:03.067Z,102636.19
2023-03-03T22:54:08.703Z,102630.13
2023-03-03T22:59:12.739Z,102635.75
2023-03-03T23:04:16.999Z,102629.44
2023-03-03T23:09:22.380Z,102625.69
2023-03-03T23:14:26.446Z,102624.06
2023-03-03T23:19:30.406Z,102625.41
2023-03-03T23:24:35.834Z,102628.88
2023-03-03T23:29:40.180Z,102626.13
2023-03-03T23:34:44.374Z,102628.72
2023-03-03T23:39:50.061Z,102619.13
2023-03-03T23:44:54.041Z,102614.25
2023-03-03T23:49:58.097Z,102612.88
2023-03-03T23:55:03.468Z,102626.72
